Wolf Lake, Indiana
Current Conditions -  °F | °C
As of 1:35 AM on Monday 24 Nov 2014 (Local Time) from KASW Reporting Station
Moderate Rain Moderate Rain  
Wind Chill: 54°   Ceiling: 700
Heat Index: 54°   Visibility: 7mi
Dew Point: 52°   Wind: 9mph
Humidity: 94%   Direction: 220°SW
Pressure: 29.09"   Gusts: 20mph
Location:  41.3346°N, 85.4973°W
Report Text: KASW 240635Z AUTO 22008G17KT 7SM RA OVC007 12/11 A2909 RMK AO2 P0004
Loading
Personal Weather Stations






























Interactive Weather Map New forecast layout! Learn more

10-Day Weather Forecast

Advertisements
Track Severe Weather on mobile